sensor_id;sensor_type;location;lat;lon;timestamp;temperature;humidity
28253;DHT22;15515;45.588;5.276;2022-07-23T04:35:29;25.60;92.50
28253;DHT22;15515;45.588;5.276;2022-07-23T04:38:08;25.50;92.20
28253;DHT22;15515;45.588;5.276;2022-07-23T04:40:35;25.40;91.40
28253;DHT22;15515;45.588;5.276;2022-07-23T04:43:03;25.50;91.30
28253;DHT22;15515;45.588;5.276;2022-07-23T04:45:36;25.50;90.30
28253;DHT22;15515;45.588;5.276;2022-07-23T04:48:03;25.40;88.50
28253;DHT22;15515;45.588;5.276;2022-07-23T04:50:31;25.40;88.90
28253;DHT22;15515;45.588;5.276;2022-07-23T04:53:00;25.40;89.60
28253;DHT22;15515;45.588;5.276;2022-07-23T04:55:27;25.40;87.80
28253;DHT22;15515;45.588;5.276;2022-07-23T04:57:55;25.40;87.00
28253;DHT22;15515;45.588;5.276;2022-07-23T05:00:22;25.50;87.80
28253;DHT22;15515;45.588;5.276;2022-07-23T05:02:50;25.50;88.60
28253;DHT22;15515;45.588;5.276;2022-07-23T05:05:18;25.50;88.90
28253;DHT22;15515;45.588;5.276;2022-07-23T05:07:48;25.40;87.60
28253;DHT22;15515;45.588;5.276;2022-07-23T05:10:16;25.50;87.50
28253;DHT22;15515;45.588;5.276;2022-07-23T05:12:44;25.40;90.20
28253;DHT22;15515;45.588;5.276;2022-07-23T05:15:11;25.20;93.70
28253;DHT22;15515;45.588;5.276;2022-07-23T05:17:39;25.10;96.80
28253;DHT22;15515;45.588;5.276;2022-07-23T05:20:11;25.20;98.00
28253;DHT22;15515;45.588;5.276;2022-07-23T05:22:40;25.10;97.40
28253;DHT22;15515;45.588;5.276;2022-07-23T05:25:08;24.80;99.90
28253;DHT22;15515;45.588;5.276;2022-07-23T05:27:35;24.80;99.90
28253;DHT22;15515;45.588;5.276;2022-07-23T05:30:03;24.90;99.90
28253;DHT22;15515;45.588;5.276;2022-07-23T05:32:34;24.90;99.90
28253;DHT22;15515;45.588;5.276;2022-07-23T05:35:16;25.00;99.90
28253;DHT22;15515;45.588;5.276;2022-07-23T05:38:00;25.20;97.40
28253;DHT22;15515;45.588;5.276;2022-07-23T05:40:29;25.20;96.90
28253;DHT22;15515;45.588;5.276;2022-07-23T05:42:58;25.20;96.10
28253;DHT22;15515;45.588;5.276;2022-07-23T05:45:51;25.30;94.80
28253;DHT22;15515;45.588;5.276;2022-07-23T05:48:18;25.50;93.70
28253;DHT22;15515;45.588;5.276;2022-07-23T05:51:10;25.50;93.20
28253;DHT22;15515;45.588;5.276;2022-07-23T05:53:38;25.60;92.70
28253;DHT22;15515;45.588;5.276;2022-07-23T05:56:20;25.70;91.50
28253;DHT22;15515;45.588;5.276;2022-07-23T05:58:48;25.80;90.30
28253;DHT22;15515;45.588;5.276;2022-07-23T06:01:17;25.80;90.60
28253;DHT22;15515;45.588;5.276;2022-07-23T06:03:52;25.80;91.30
28253;DHT22;15515;45.588;5.276;2022-07-23T06:06:20;25.90;90.90
28253;DHT22;15515;45.588;5.276;2022-07-23T06:08:47;26.00;90.80
28253;DHT22;15515;45.588;5.276;2022-07-23T06:11:15;26.00;89.40
28253;DHT22;15515;45.588;5.276;2022-07-23T06:13:42;26.10;89.60
28253;DHT22;15515;45.588;5.276;2022-07-23T06:16:12;26.10;86.90
28253;DHT22;15515;45.588;5.276;2022-07-23T06:18:39;26.20;85.90
28253;DHT22;15515;45.588;5.276;2022-07-23T06:21:07;26.20;86.10
28253;DHT22;15515;45.588;5.276;2022-07-23T06:23:43;26.30;85.00
28253;DHT22;15515;45.588;5.276;2022-07-23T06:26:12;26.40;84.20
28253;DHT22;15515;45.588;5.276;2022-07-23T06:28:39;26.40;84.10
28253;DHT22;15515;45.588;5.276;2022-07-23T06:31:06;26.50;84.20
28253;DHT22;15515;45.588;5.276;2022-07-23T06:33:34;26.50;85.40
28253;DHT22;15515;45.588;5.276;2022-07-23T06:36:01;26.60;84.90
28253;DHT22;15515;45.588;5.276;2022-07-23T06:38:28;26.60;84.00
28253;DHT22;15515;45.588;5.276;2022-07-23T06:40:56;26.60;83.30
28253;DHT22;15515;45.588;5.276;2022-07-23T06:43:23;26.60;82.60
28253;DHT22;15515;45.588;5.276;2022-07-23T06:45:54;26.60;81.60
28253;DHT22;15515;45.588;5.276;2022-07-23T06:48:21;26.80;81.60
28253;DHT22;15515;45.588;5.276;2022-07-23T06:50:49;26.90;81.20
28253;DHT22;15515;45.588;5.276;2022-07-23T06:53:23;27.00;80.70
28253;DHT22;15515;45.588;5.276;2022-07-23T06:55:50;27.00;80.40
28253;DHT22;15515;45.588;5.276;2022-07-23T06:58:18;27.10;80.00
28253;DHT22;15515;45.588;5.276;2022-07-23T07:00:46;27.20;79.50
28253;DHT22;15515;45.588;5.276;2022-07-23T07:03:13;27.30;78.30
28253;DHT22;15515;45.588;5.276;2022-07-23T07:05:41;27.30;77.30
28253;DHT22;15515;45.588;5.276;2022-07-23T07:08:08;27.40;76.50
28253;DHT22;15515;45.588;5.276;2022-07-23T07:10:35;27.50;76.40
28253;DHT22;15515;45.588;5.276;2022-07-23T07:13:02;27.70;75.80
28253;DHT22;15515;45.588;5.276;2022-07-23T07:15:31;27.90;74.90
28253;DHT22;15515;45.588;5.276;2022-07-23T07:17:59;28.00;74.30
28253;DHT22;15515;45.588;5.276;2022-07-23T07:20:27;28.10;73.50
28253;DHT22;15515;45.588;5.276;2022-07-23T07:22:54;28.20;72.50
28253;DHT22;15515;45.588;5.276;2022-07-23T07:25:21;28.30;72.60
28253;DHT22;15515;45.588;5.276;2022-07-23T07:27:50;28.40;72.40
28253;DHT22;15515;45.588;5.276;2022-07-23T07:30:17;28.50;72.30
28253;DHT22;15515;45.588;5.276;2022-07-23T07:32:44;28.60;71.60
28253;DHT22;15515;45.588;5.276;2022-07-23T07:35:27;28.60;72.00
28253;DHT22;15515;45.588;5.276;2022-07-23T07:37:54;28.70;72.10
28253;DHT22;15515;45.588;5.276;2022-07-23T07:40:21;28.60;71.70
28253;DHT22;15515;45.588;5.276;2022-07-23T07:42:50;28.60;71.80
28253;DHT22;15515;45.588;5.276;2022-07-23T07:45:20;28.70;71.60
28253;DHT22;15515;45.588;5.276;2022-07-23T07:47:48;28.70;71.50
28253;DHT22;15515;45.588;5.276;2022-07-23T07:50:15;28.60;71.60
28253;DHT22;15515;45.588;5.276;2022-07-23T07:52:42;28.80;71.80
28253;DHT22;15515;45.588;5.276;2022-07-23T07:55:10;28.80;71.10
28253;DHT22;15515;45.588;5.276;2022-07-23T07:57:38;28.50;71.20
28253;DHT22;15515;45.588;5.276;2022-07-23T08:00:07;28.60;70.90
28253;DHT22;15515;45.588;5.276;2022-07-23T08:05:13;28.60;71.50
28253;DHT22;15515;45.588;5.276;2022-07-23T08:07:41;28.40;72.20
28253;DHT22;15515;45.588;5.276;2022-07-23T08:10:08;28.10;73.70
28253;DHT22;15515;45.588;5.276;2022-07-23T08:12:51;28.00;73.30
28253;DHT22;15515;45.588;5.276;2022-07-23T08:15:21;27.80;72.90
28253;DHT22;15515;45.588;5.276;2022-07-23T08:17:48;28.10;73.00
28253;DHT22;15515;45.588;5.276;2022-07-23T08:20:18;28.30;72.10
28253;DHT22;15515;45.588;5.276;2022-07-23T08:22:50;28.20;72.80
28253;DHT22;15515;45.588;5.276;2022-07-23T08:25:23;28.30;73.30
28253;DHT22;15515;45.588;5.276;2022-07-23T08:27:50;28.00;74.30
28253;DHT22;15515;45.588;5.276;2022-07-23T08:30:18;27.70;75.20
28253;DHT22;15515;45.588;5.276;2022-07-23T08:32:54;27.80;76.10
28253;DHT22;15515;45.588;5.276;2022-07-23T08:35:32;28.00;75.20
28253;DHT22;15515;45.588;5.276;2022-07-23T08:38:11;28.30;74.60
28253;DHT22;15515;45.588;5.276;2022-07-23T08:40:41;28.00;74.30
28253;DHT22;15515;45.588;5.276;2022-07-23T08:43:11;27.90;74.80
28253;DHT22;15515;45.588;5.276;2022-07-23T08:45:41;27.90;74.10
28253;DHT22;15515;45.588;5.276;2022-07-23T08:48:11;28.00;73.90
28253;DHT22;15515;45.588;5.276;2022-07-23T08:50:42;28.30;74.10
28253;DHT22;15515;45.588;5.276;2022-07-23T08:53:10;28.70;72.60
28253;DHT22;15515;45.588;5.276;2022-07-23T08:55:37;28.90;71.90
28253;DHT22;15515;45.588;5.276;2022-07-23T08:58:04;29.10;70.70
28253;DHT22;15515;45.588;5.276;2022-07-23T09:00:32;29.10;71.40
28253;DHT22;15515;45.588;5.276;2022-07-23T09:03:00;29.20;70.90
28253;DHT22;15515;45.588;5.276;2022-07-23T09:05:27;29.60;70.80
28253;DHT22;15515;45.588;5.276;2022-07-23T09:13:25;29.70;68.70
28253;DHT22;15515;45.588;5.276;2022-07-23T09:15:55;29.90;69.30
28253;DHT22;15515;45.588;5.276;2022-07-23T09:18:50;30.10;69.40
28253;DHT22;15515;45.588;5.276;2022-07-23T09:24:00;31.20;65.40
28253;DHT22;15515;45.588;5.276;2022-07-23T09:28:59;31.50;63.70
28253;DHT22;15515;45.588;5.276;2022-07-23T09:32:14;31.60;63.30
28253;DHT22;15515;45.588;5.276;2022-07-23T09:36:54;32.20;62.60
28253;DHT22;15515;45.588;5.276;2022-07-23T09:39:29;32.50;60.00
28253;DHT22;15515;45.588;5.276;2022-07-23T09:41:57;32.40;60.50
28253;DHT22;15515;45.588;5.276;2022-07-23T09:44:24;31.90;60.80
28253;DHT22;15515;45.588;5.276;2022-07-23T09:46:59;31.80;61.90
28253;DHT22;15515;45.588;5.276;2022-07-23T09:49:27;31.60;62.40
28253;DHT22;15515;45.588;5.276;2022-07-23T09:51:57;31.60;63.20
28253;DHT22;15515;45.588;5.276;2022-07-23T09:54:34;31.40;63.40
28253;DHT22;15515;45.588;5.276;2022-07-23T09:57:12;31.40;63.10
28253;DHT22;15515;45.588;5.276;2022-07-23T09:59:44;31.70;62.90
28253;DHT22;15515;45.588;5.276;2022-07-23T10:02:13;31.70;60.70
28253;DHT22;15515;45.588;5.276;2022-07-23T10:05:10;31.80;59.70
28253;DHT22;15515;45.588;5.276;2022-07-23T10:08:04;31.50;60.00
28253;DHT22;15515;45.588;5.276;2022-07-23T10:10:53;31.10;60.00
28253;DHT22;15515;45.588;5.276;2022-07-23T10:13:20;30.90;61.00
28253;DHT22;15515;45.588;5.276;2022-07-23T10:16:02;30.80;61.60
28253;DHT22;15515;45.588;5.276;2022-07-23T10:18:30;30.80;61.20
28253;DHT22;15515;45.588;5.276;2022-07-23T10:20:59;30.60;60.60
28253;DHT22;15515;45.588;5.276;2022-07-23T10:34:49;30.10;63.10
28253;DHT22;15515;45.588;5.276;2022-07-23T10:40:14;31.20;64.40
28253;DHT22;15515;45.588;5.276;2022-07-23T10:42:45;31.70;62.40
28253;DHT22;15515;45.588;5.276;2022-07-23T10:47:50;32.80;58.20
28253;DHT22;15515;45.588;5.276;2022-07-23T10:50:22;33.20;57.80
28253;DHT22;15515;45.588;5.276;2022-07-23T10:53:13;33.40;58.10
28253;DHT22;15515;45.588;5.276;2022-07-23T10:55:47;33.60;57.80
28253;DHT22;15515;45.588;5.276;2022-07-23T10:58:22;33.80;58.40
28253;DHT22;15515;45.588;5.276;2022-07-23T11:01:35;33.80;57.40
28253;DHT22;15515;45.588;5.276;2022-07-23T11:04:04;34.20;56.50
28253;DHT22;15515;45.588;5.276;2022-07-23T11:09:27;34.70;55.90
28253;DHT22;15515;45.588;5.276;2022-07-23T11:17:30;34.50;55.80
28253;DHT22;15515;45.588;5.276;2022-07-23T11:20:21;34.70;55.00
28253;DHT22;15515;45.588;5.276;2022-07-23T11:22:51;34.40;54.50
28253;DHT22;15515;45.588;5.276;2022-07-23T11:27:51;33.50;56.00
28253;DHT22;15515;45.588;5.276;2022-07-23T11:35:46;34.80;53.50
28253;DHT22;15515;45.588;5.276;2022-07-23T11:38:22;35.30;52.70
28253;DHT22;15515;45.588;5.276;2022-07-23T11:40:52;35.50;52.30
28253;DHT22;15515;45.588;5.276;2022-07-23T11:43:20;35.00;51.80
28253;DHT22;15515;45.588;5.276;2022-07-23T11:45:50;35.30;51.90
28253;DHT22;15515;45.588;5.276;2022-07-23T11:48:21;35.50;51.20
28253;DHT22;15515;45.588;5.276;2022-07-23T11:50:50;35.70;51.30
28253;DHT22;15515;45.588;5.276;2022-07-23T11:53:23;35.70;51.30
28253;DHT22;15515;45.588;5.276;2022-07-23T11:55:50;35.20;50.70
28253;DHT22;15515;45.588;5.276;2022-07-23T11:58:18;34.70;51.80
28253;DHT22;15515;45.588;5.276;2022-07-23T12:00:46;34.40;52.60
28253;DHT22;15515;45.588;5.276;2022-07-23T12:03:13;34.00;53.60
28253;DHT22;15515;45.588;5.276;2022-07-23T12:05:41;33.70;53.70
28253;DHT22;15515;45.588;5.276;2022-07-23T12:08:09;33.50;54.40
28253;DHT22;15515;45.588;5.276;2022-07-23T12:10:41;33.40;54.00
28253;DHT22;15515;45.588;5.276;2022-07-23T12:13:11;33.30;54.10
28253;DHT22;15515;45.588;5.276;2022-07-23T12:15:57;33.50;55.30
28253;DHT22;15515;45.588;5.276;2022-07-23T12:18:27;33.80;54.80
28253;DHT22;15515;45.588;5.276;2022-07-23T12:20:58;34.40;54.80
28253;DHT22;15515;45.588;5.276;2022-07-23T12:23:29;35.10;53.30
28253;DHT22;15515;45.588;5.276;2022-07-23T12:26:01;35.50;52.90
28253;DHT22;15515;45.588;5.276;2022-07-23T12:28:32;36.00;50.90
28253;DHT22;15515;45.588;5.276;2022-07-23T12:31:00;36.10;51.00
28253;DHT22;15515;45.588;5.276;2022-07-23T12:33:30;36.40;49.40
28253;DHT22;15515;45.588;5.276;2022-07-23T12:36:00;36.50;49.30
28253;DHT22;15515;45.588;5.276;2022-07-23T12:38:38;36.80;48.60
28253;DHT22;15515;45.588;5.276;2022-07-23T12:41:05;37.00;47.50
28253;DHT22;15515;45.588;5.276;2022-07-23T12:43:36;36.90;46.50
28253;DHT22;15515;45.588;5.276;2022-07-23T12:46:05;36.90;46.30
28253;DHT22;15515;45.588;5.276;2022-07-23T12:48:35;37.20;46.30
28253;DHT22;15515;45.588;5.276;2022-07-23T12:53:42;37.10;46.50
28253;DHT22;15515;45.588;5.276;2022-07-23T12:56:15;36.90;46.80
28253;DHT22;15515;45.588;5.276;2022-07-23T12:58:53;36.50;47.10
28253;DHT22;15515;45.588;5.276;2022-07-23T13:04:12;36.10;48.00
28253;DHT22;15515;45.588;5.276;2022-07-23T13:06:46;36.30;47.50
28253;DHT22;15515;45.588;5.276;2022-07-23T13:09:25;36.40;47.60
28253;DHT22;15515;45.588;5.276;2022-07-23T13:11:54;36.60;46.60
28253;DHT22;15515;45.588;5.276;2022-07-23T13:14:22;37.50;46.20
28253;DHT22;15515;45.588;5.276;2022-07-23T13:16:51;38.40;44.50
28253;DHT22;15515;45.588;5.276;2022-07-23T13:19:19;39.00;43.10
28253;DHT22;15515;45.588;5.276;2022-07-23T13:21:49;38.00;44.20
28253;DHT22;15515;45.588;5.276;2022-07-23T13:24:16;37.50;45.30
28253;DHT22;15515;45.588;5.276;2022-07-23T13:26:43;37.70;45.90
28253;DHT22;15515;45.588;5.276;2022-07-23T13:29:11;38.20;44.40
28253;DHT22;15515;45.588;5.276;2022-07-23T13:31:38;38.90;43.40
28253;DHT22;15515;45.588;5.276;2022-07-23T13:34:06;38.90;43.10
28253;DHT22;15515;45.588;5.276;2022-07-23T13:36:35;38.10;44.20
28253;DHT22;15515;45.588;5.276;2022-07-23T13:39:03;38.00;44.90
28253;DHT22;15515;45.588;5.276;2022-07-23T13:41:31;38.70;43.50
28253;DHT22;15515;45.588;5.276;2022-07-23T13:43:59;39.00;42.60
28253;DHT22;15515;45.588;5.276;2022-07-23T13:46:26;39.30;42.50
28253;DHT22;15515;45.588;5.276;2022-07-23T13:48:53;39.80;41.70
28253;DHT22;15515;45.588;5.276;2022-07-23T13:51:20;39.80;41.30
28253;DHT22;15515;45.588;5.276;2022-07-23T13:53:48;40.10;41.10
28253;DHT22;15515;45.588;5.276;2022-07-23T13:56:14;40.50;40.40
28253;DHT22;15515;45.588;5.276;2022-07-23T13:58:42;40.80;40.10
28253;DHT22;15515;45.588;5.276;2022-07-23T14:01:09;41.10;39.70
28253;DHT22;15515;45.588;5.276;2022-07-23T14:03:36;41.30;38.80
28253;DHT22;15515;45.588;5.276;2022-07-23T14:06:04;41.30;38.70
28253;DHT22;15515;45.588;5.276;2022-07-23T14:08:32;40.20;40.20
28253;DHT22;15515;45.588;5.276;2022-07-23T14:10:59;38.90;42.20
28253;DHT22;15515;45.588;5.276;2022-07-23T14:13:26;38.10;43.70
28253;DHT22;15515;45.588;5.276;2022-07-23T14:15:53;37.40;44.90
28253;DHT22;15515;45.588;5.276;2022-07-23T14:18:21;37.30;45.40
28253;DHT22;15515;45.588;5.276;2022-07-23T14:20:48;38.00;44.20
28253;DHT22;15515;45.588;5.276;2022-07-23T14:23:15;38.10;44.20
28253;DHT22;15515;45.588;5.276;2022-07-23T14:25:42;37.40;45.00
28253;DHT22;15515;45.588;5.276;2022-07-23T14:28:09;37.70;44.80
28253;DHT22;15515;45.588;5.276;2022-07-23T14:30:38;38.80;42.50
28253;DHT22;15515;45.588;5.276;2022-07-23T14:33:05;39.70;40.20
28253;DHT22;15515;45.588;5.276;2022-07-23T14:35:32;40.60;38.70
28253;DHT22;15515;45.588;5.276;2022-07-23T14:37:59;41.10;37.50
28253;DHT22;15515;45.588;5.276;2022-07-23T14:40:26;41.30;37.30
28253;DHT22;15515;45.588;5.276;2022-07-23T14:42:53;41.10;36.80
28253;DHT22;15515;45.588;5.276;2022-07-23T14:45:21;39.70;39.80
28253;DHT22;15515;45.588;5.276;2022-07-23T14:47:48;39.10;40.80
28253;DHT22;15515;45.588;5.276;2022-07-23T14:50:15;38.20;42.10
28253;DHT22;15515;45.588;5.276;2022-07-23T14:52:42;36.80;44.50
28253;DHT22;15515;45.588;5.276;2022-07-23T14:55:10;37.10;44.20
28253;DHT22;15515;45.588;5.276;2022-07-23T14:57:37;38.00;42.30
28253;DHT22;15515;45.588;5.276;2022-07-23T15:00:05;38.80;40.90
28253;DHT22;15515;45.588;5.276;2022-07-23T15:02:32;39.20;39.90
28253;DHT22;15515;45.588;5.276;2022-07-23T15:04:59;39.30;39.40
28253;DHT22;15515;45.588;5.276;2022-07-23T15:07:30;39.50;39.00
28253;DHT22;15515;45.588;5.276;2022-07-23T15:09:57;39.70;39.00
28253;DHT22;15515;45.588;5.276;2022-07-23T15:12:24;39.40;38.70
28253;DHT22;15515;45.588;5.276;2022-07-23T15:14:52;38.50;41.00
28253;DHT22;15515;45.588;5.276;2022-07-23T15:17:19;37.30;43.20
28253;DHT22;15515;45.588;5.276;2022-07-23T15:19:46;36.50;44.90
28253;DHT22;15515;45.588;5.276;2022-07-23T15:22:13;35.90;46.30
28253;DHT22;15515;45.588;5.276;2022-07-23T15:24:40;35.40;47.00
28253;DHT22;15515;45.588;5.276;2022-07-23T15:27:07;34.90;47.60
28253;DHT22;15515;45.588;5.276;2022-07-23T15:29:34;34.60;48.40
28253;DHT22;15515;45.588;5.276;2022-07-23T15:32:03;34.30;48.80
28253;DHT22;15515;45.588;5.276;2022-07-23T15:34:30;34.00;49.30
28253;DHT22;15515;45.588;5.276;2022-07-23T15:37:02;33.90;49.80
28253;DHT22;15515;45.588;5.276;2022-07-23T15:39:29;33.70;49.90
28253;DHT22;15515;45.588;5.276;2022-07-23T15:42:02;33.60;50.20
28253;DHT22;15515;45.588;5.276;2022-07-23T15:44:30;33.40;50.30
28253;DHT22;15515;45.588;5.276;2022-07-23T15:46:57;33.30;51.00
28253;DHT22;15515;45.588;5.276;2022-07-23T15:49:27;33.20;52.20
28253;DHT22;15515;45.588;5.276;2022-07-23T15:51:54;33.10;51.80
28253;DHT22;15515;45.588;5.276;2022-07-23T15:54:22;33.00;51.80
28253;DHT22;15515;45.588;5.276;2022-07-23T15:56:49;32.90;52.00
28253;DHT22;15515;45.588;5.276;2022-07-23T15:59:17;32.80;52.30
28253;DHT22;15515;45.588;5.276;2022-07-23T16:01:44;32.60;52.40
28253;DHT22;15515;45.588;5.276;2022-07-23T16:04:11;32.60;52.60
28253;DHT22;15515;45.588;5.276;2022-07-23T16:06:39;32.50;52.50
28253;DHT22;15515;45.588;5.276;2022-07-23T16:09:08;32.50;52.80
28253;DHT22;15515;45.588;5.276;2022-07-23T16:11:37;32.40;52.70
28253;DHT22;15515;45.588;5.276;2022-07-23T16:14:04;32.30;52.90
28253;DHT22;15515;45.588;5.276;2022-07-23T16:16:31;32.20;53.10
28253;DHT22;15515;45.588;5.276;2022-07-23T16:18:58;32.30;53.00
28253;DHT22;15515;45.588;5.276;2022-07-23T16:21:26;32.20;53.10
28253;DHT22;15515;45.588;5.276;2022-07-23T16:23:54;32.20;53.00
28253;DHT22;15515;45.588;5.276;2022-07-23T16:26:21;32.10;52.70
28253;DHT22;15515;45.588;5.276;2022-07-23T16:28:49;32.00;53.10
28253;DHT22;15515;45.588;5.276;2022-07-23T16:31:16;31.90;53.40
28253;DHT22;15515;45.588;5.276;2022-07-23T16:33:43;31.90;53.20
28253;DHT22;15515;45.588;5.276;2022-07-23T16:36:10;31.90;53.30
28253;DHT22;15515;45.588;5.276;2022-07-23T16:38:38;31.80;53.50
28253;DHT22;15515;45.588;5.276;2022-07-23T16:41:06;31.80;53.70
28253;DHT22;15515;45.588;5.276;2022-07-23T16:43:33;31.80;53.80
28253;DHT22;15515;45.588;5.276;2022-07-23T16:46:01;31.70;53.70
28253;DHT22;15515;45.588;5.276;2022-07-23T16:48:28;31.60;53.80
28253;DHT22;15515;45.588;5.276;2022-07-23T16:50:55;31.60;53.90
28253;DHT22;15515;45.588;5.276;2022-07-23T16:53:23;31.70;54.10
28253;DHT22;15515;45.588;5.276;2022-07-23T16:55:50;31.70;53.90
28253;DHT22;15515;45.588;5.276;2022-07-23T16:58:17;31.60;53.80
28253;DHT22;15515;45.588;5.276;2022-07-23T17:00:44;31.70;53.90
28253;DHT22;15515;45.588;5.276;2022-07-23T17:03:11;31.50;54.00
28253;DHT22;15515;45.588;5.276;2022-07-23T17:05:38;31.50;54.10
28253;DHT22;15515;45.588;5.276;2022-07-23T17:08:05;31.40;54.10
28253;DHT22;15515;45.588;5.276;2022-07-23T17:10:32;31.40;54.10
28253;DHT22;15515;45.588;5.276;2022-07-23T17:12:59;31.40;54.30
28253;DHT22;15515;45.588;5.276;2022-07-23T17:15:28;31.40;54.40
28253;DHT22;15515;45.588;5.276;2022-07-23T17:17:55;31.30;54.30
28253;DHT22;15515;45.588;5.276;2022-07-23T17:20:22;31.20;54.40
28253;DHT22;15515;45.588;5.276;2022-07-23T17:22:49;31.20;54.30
28253;DHT22;15515;45.588;5.276;2022-07-23T17:25:16;31.20;54.50
28253;DHT22;15515;45.588;5.276;2022-07-23T17:27:46;31.10;54.40
28253;DHT22;15515;45.588;5.276;2022-07-23T17:30:15;31.10;54.50
28253;DHT22;15515;45.588;5.276;2022-07-23T17:32:42;31.10;54.40
28253;DHT22;15515;45.588;5.276;2022-07-23T17:35:09;31.10;54.20
28253;DHT22;15515;45.588;5.276;2022-07-23T17:37:36;31.00;54.10
28253;DHT22;15515;45.588;5.276;2022-07-23T17:40:04;31.00;54.40
28253;DHT22;15515;45.588;5.276;2022-07-23T17:42:32;31.00;54.60
28253;DHT22;15515;45.588;5.276;2022-07-23T17:45:00;31.00;54.70
28253;DHT22;15515;45.588;5.276;2022-07-23T17:47:30;30.90;55.10
28253;DHT22;15515;45.588;5.276;2022-07-23T17:49:57;30.90;55.30
28253;DHT22;15515;45.588;5.276;2022-07-23T17:52:25;30.90;54.90
28253;DHT22;15515;45.588;5.276;2022-07-23T17:54:53;30.80;55.00
28253;DHT22;15515;45.588;5.276;2022-07-23T17:57:20;30.80;55.20
28253;DHT22;15515;45.588;5.276;2022-07-23T17:59:47;30.80;55.40
28253;DHT22;15515;45.588;5.276;2022-07-23T18:02:14;30.70;55.70
28253;DHT22;15515;45.588;5.276;2022-07-23T18:04:41;30.60;56.00
28253;DHT22;15515;45.588;5.276;2022-07-23T18:07:08;30.60;56.00
28253;DHT22;15515;45.588;5.276;2022-07-23T18:09:36;30.60;56.20
28253;DHT22;15515;45.588;5.276;2022-07-23T18:12:03;30.50;56.50
28253;DHT22;15515;45.588;5.276;2022-07-23T18:14:31;30.50;56.40
28253;DHT22;15515;45.588;5.276;2022-07-23T18:16:58;30.50;56.20
28253;DHT22;15515;45.588;5.276;2022-07-23T18:19:26;30.50;56.20
28253;DHT22;15515;45.588;5.276;2022-07-23T18:21:53;30.40;56.30
28253;DHT22;15515;45.588;5.276;2022-07-23T18:24:20;30.40;56.40
28253;DHT22;15515;45.588;5.276;2022-07-23T18:26:49;30.40;56.30
28253;DHT22;15515;45.588;5.276;2022-07-23T18:29:19;30.30;56.40
28253;DHT22;15515;45.588;5.276;2022-07-23T18:31:47;30.30;56.40
28253;DHT22;15515;45.588;5.276;2022-07-23T18:34:14;30.30;56.50
28253;DHT22;15515;45.588;5.276;2022-07-23T18:36:43;30.30;56.40
28253;DHT22;15515;45.588;5.276;2022-07-23T18:39:10;30.30;56.50
28253;DHT22;15515;45.588;5.276;2022-07-23T18:41:38;30.20;56.60
28253;DHT22;15515;45.588;5.276;2022-07-23T18:44:05;30.10;57.00
28253;DHT22;15515;45.588;5.276;2022-07-23T18:46:32;30.10;56.70
28253;DHT22;15515;45.588;5.276;2022-07-23T18:49:00;30.10;57.30
28253;DHT22;15515;45.588;5.276;2022-07-23T18:51:28;30.00;57.30
28253;DHT22;15515;45.588;5.276;2022-07-23T18:53:55;30.00;57.50
28253;DHT22;15515;45.588;5.276;2022-07-23T18:56:23;30.00;57.80
28253;DHT22;15515;45.588;5.276;2022-07-23T18:58:50;29.90;57.80
28253;DHT22;15515;45.588;5.276;2022-07-23T19:01:17;29.90;57.70
28253;DHT22;15515;45.588;5.276;2022-07-23T19:03:44;29.90;58.00
28253;DHT22;15515;45.588;5.276;2022-07-23T19:06:12;29.90;58.20
28253;DHT22;15515;45.588;5.276;2022-07-23T19:08:39;29.90;58.00
28253;DHT22;15515;45.588;5.276;2022-07-23T19:11:07;29.80;58.10
28253;DHT22;15515;45.588;5.276;2022-07-23T19:13:34;29.80;58.20
28253;DHT22;15515;45.588;5.276;2022-07-23T19:16:03;29.80;58.60
28253;DHT22;15515;45.588;5.276;2022-07-23T19:18:32;29.80;58.70
28253;DHT22;15515;45.588;5.276;2022-07-23T19:20:59;29.70;58.40
28253;DHT22;15515;45.588;5.276;2022-07-23T19:23:27;29.70;58.80
28253;DHT22;15515;45.588;5.276;2022-07-23T19:25:54;29.70;58.90
28253;DHT22;15515;45.588;5.276;2022-07-23T19:28:21;29.60;58.70
28253;DHT22;15515;45.588;5.276;2022-07-23T19:30:48;29.60;58.90
28253;DHT22;15515;45.588;5.276;2022-07-23T19:33:15;29.50;59.20
28253;DHT22;15515;45.588;5.276;2022-07-23T19:35:43;29.40;59.30
28253;DHT22;15515;45.588;5.276;2022-07-23T19:38:10;29.50;59.30
28253;DHT22;15515;45.588;5.276;2022-07-23T19:40:37;29.40;59.50
28253;DHT22;15515;45.588;5.276;2022-07-23T19:43:04;29.40;59.60
28253;DHT22;15515;45.588;5.276;2022-07-23T19:45:32;29.40;59.60
28253;DHT22;15515;45.588;5.276;2022-07-23T19:47:59;29.30;59.60
28253;DHT22;15515;45.588;5.276;2022-07-23T19:50:26;29.30;59.70
28253;DHT22;15515;45.588;5.276;2022-07-23T19:52:55;29.30;59.80
28253;DHT22;15515;45.588;5.276;2022-07-23T19:55:23;29.30;60.00
28253;DHT22;15515;45.588;5.276;2022-07-23T19:57:50;29.20;60.00
28253;DHT22;15515;45.588;5.276;2022-07-23T20:00:18;29.20;60.30
28253;DHT22;15515;45.588;5.276;2022-07-23T20:02:45;29.10;60.30
28253;DHT22;15515;45.588;5.276;2022-07-23T20:05:15;29.10;60.60
28253;DHT22;15515;45.588;5.276;2022-07-23T20:07:42;29.10;60.90
28253;DHT22;15515;45.588;5.276;2022-07-23T20:10:10;29.10;60.90
28253;DHT22;15515;45.588;5.276;2022-07-23T20:12:39;29.00;60.80
28253;DHT22;15515;45.588;5.276;2022-07-23T20:15:08;29.00;61.50
28253;DHT22;15515;45.588;5.276;2022-07-23T20:17:36;28.90;62.00
28253;DHT22;15515;45.588;5.276;2022-07-23T20:20:06;28.90;62.30
28253;DHT22;15515;45.588;5.276;2022-07-23T20:22:34;28.80;62.50
28253;DHT22;15515;45.588;5.276;2022-07-23T20:25:04;28.80;62.50
28253;DHT22;15515;45.588;5.276;2022-07-23T20:27:31;28.70;62.80
28253;DHT22;15515;45.588;5.276;2022-07-23T20:29:59;28.70;62.70
28253;DHT22;15515;45.588;5.276;2022-07-23T20:32:26;28.60;63.10
28253;DHT22;15515;45.588;5.276;2022-07-23T20:34:53;28.50;63.40
28253;DHT22;15515;45.588;5.276;2022-07-23T20:37:20;28.40;63.50
28253;DHT22;15515;45.588;5.276;2022-07-23T20:39:47;28.40;63.60
28253;DHT22;15515;45.588;5.276;2022-07-23T20:42:14;28.40;63.70
28253;DHT22;15515;45.588;5.276;2022-07-23T20:44:41;28.40;63.90
28253;DHT22;15515;45.588;5.276;2022-07-23T20:47:08;28.30;64.00
28253;DHT22;15515;45.588;5.276;2022-07-23T20:49:35;28.30;64.30
28253;DHT22;15515;45.588;5.276;2022-07-23T20:52:03;28.20;64.30
28253;DHT22;15515;45.588;5.276;2022-07-23T20:54:30;28.20;64.60
28253;DHT22;15515;45.588;5.276;2022-07-23T20:56:57;28.20;64.60
28253;DHT22;15515;45.588;5.276;2022-07-23T20:59:24;28.10;65.00
28253;DHT22;15515;45.588;5.276;2022-07-23T21:01:56;28.10;64.90
28253;DHT22;15515;45.588;5.276;2022-07-23T21:04:23;28.00;64.80
28253;DHT22;15515;45.588;5.276;2022-07-23T21:06:50;28.00;64.90
28253;DHT22;15515;45.588;5.276;2022-07-23T21:09:17;27.90;65.20
28253;DHT22;15515;45.588;5.276;2022-07-23T21:11:44;27.80;65.40